createdAt,value
2019-05-12T00:02:30.253Z,61.50
2019-05-12T00:05:02.335Z,61.30
2019-05-12T00:07:34.740Z,60.83
2019-05-12T00:10:08.594Z,60.69
2019-05-12T00:12:40.722Z,60.90
2019-05-12T00:15:14.304Z,61.23
2019-05-12T00:17:48.112Z,61.55
2019-05-12T00:20:19.838Z,61.81
2019-05-12T00:22:55.092Z,62.01
2019-05-12T00:25:28.328Z,61.94
2019-05-12T00:28:00.774Z,62.00
2019-05-12T00:30:48.866Z,62.15
2019-05-12T00:33:20.810Z,61.95
2019-05-12T00:35:52.664Z,61.93
2019-05-12T00:38:24.728Z,61.90
2019-05-12T00:40:58.352Z,61.70
2019-05-12T00:43:30.073Z,61.82
2019-05-12T00:46:01.981Z,61.93
2019-05-12T00:48:33.906Z,61.90
2019-05-12T00:51:07.768Z,61.91
2019-05-12T00:53:43.340Z,62.10
2019-05-12T00:56:13.445Z,62.08
2019-05-12T00:58:45.407Z,61.91
2019-05-12T01:01:18.407Z,61.84
2019-05-12T01:03:50.293Z,61.45
2019-05-12T01:06:22.094Z,61.37
2019-05-12T01:08:54.219Z,61.10
2019-05-12T01:11:28.333Z,61.04
2019-05-12T01:13:59.690Z,60.65
2019-05-12T01:16:31.456Z,60.30
2019-05-12T01:19:03.614Z,60.07
2019-05-12T01:21:37.596Z,60.32
2019-05-12T01:24:09.228Z,60.78
2019-05-12T01:26:41.121Z,61.00
2019-05-12T01:29:12.979Z,61.00
2019-05-12T01:31:52.180Z,60.85
2019-05-12T01:34:24.199Z,60.38
2019-05-12T01:36:58.568Z,60.14
2019-05-12T01:39:30.988Z,59.49
2019-05-12T01:42:02.876Z,59.07
2019-05-12T01:44:34.832Z,58.94
2019-05-12T01:47:08.368Z,58.70
2019-05-12T01:49:40.424Z,58.64
2019-05-12T01:52:13.366Z,58.79
2019-05-12T01:54:47.814Z,58.74
2019-05-12T01:57:19.325Z,58.94
2019-05-12T01:59:51.316Z,58.86
2019-05-12T02:02:23.143Z,59.06
2019-05-12T02:05:08.867Z,58.92
2019-05-12T02:07:48.027Z,58.70
2019-05-12T02:10:21.596Z,58.90
2019-05-12T02:12:53.381Z,59.37
2019-05-12T02:15:27.659Z,59.54
2019-05-12T02:17:59.229Z,59.50
2019-05-12T02:20:31.405Z,59.65
2019-05-12T02:23:03.213Z,59.96
2019-05-12T02:25:37.853Z,60.06
2019-05-12T02:28:09.593Z,59.71
2019-05-12T02:30:42.229Z,59.75
2019-05-12T02:33:15.923Z,60.00
2019-05-12T02:35:47.684Z,59.94
2019-05-12T02:38:19.458Z,59.85
2019-05-12T02:40:54.753Z,59.75
2019-05-12T02:43:25.487Z,59.86
2019-05-12T02:45:57.432Z,60.50
2019-05-12T02:48:29.285Z,60.29
2019-05-12T02:51:01.315Z,60.20
2019-05-12T02:53:35.131Z,60.49
2019-05-12T02:56:08.216Z,60.12
2019-05-12T02:58:45.179Z,59.87
2019-05-12T03:01:15.815Z,59.98
2019-05-12T03:03:49.982Z,60.02
2019-05-12T03:06:25.075Z,60.01
2019-05-12T03:09:04.822Z,60.18
2019-05-12T03:11:37.495Z,60.17
2019-05-12T03:14:09.334Z,60.17
2019-05-12T03:16:41.217Z,60.05
2019-05-12T03:19:15.025Z,59.95
2019-05-12T03:21:46.630Z,59.99
2019-05-12T03:24:19.351Z,60.04
2019-05-12T03:26:55.070Z,60.18
2019-05-12T03:29:25.365Z,60.33
2019-05-12T03:31:57.657Z,60.36
2019-05-12T03:34:30.038Z,60.30
2019-05-12T03:37:07.831Z,60.29
2019-05-12T03:39:35.847Z,60.33
2019-05-12T03:42:08.339Z,60.34
2019-05-12T03:44:40.135Z,60.12
2019-05-12T03:47:14.459Z,60.14
2019-05-12T03:49:45.597Z,59.92
2019-05-12T03:52:17.626Z,60.01
2019-05-12T03:54:49.619Z,59.67
2019-05-12T03:57:25.094Z,59.66
2019-05-12T03:59:56.499Z,59.73
2019-05-12T04:02:28.543Z,59.71
2019-05-12T04:05:00.316Z,59.54
2019-05-12T04:07:34.433Z,59.82
2019-05-12T04:10:05.997Z,59.62
2019-05-12T04:12:38.039Z,59.58
2019-05-12T04:15:10.179Z,59.53
2019-05-12T04:17:45.500Z,59.25
2019-05-12T04:20:18.554Z,59.40
2019-05-12T04:22:50.703Z,59.28
2019-05-12T04:25:24.947Z,59.22
2019-05-12T04:27:56.117Z,59.23
2019-05-12T04:30:27.887Z,59.19
2019-05-12T04:32:59.778Z,59.53
2019-05-12T04:35:34.693Z,59.03
2019-05-12T04:38:05.731Z,59.50
2019-05-12T04:40:37.658Z,59.35
2019-05-12T04:43:09.891Z,59.58
2019-05-12T04:45:44.789Z,59.54
2019-05-12T04:48:20.927Z,59.63
2019-05-12T04:50:49.204Z,59.22
2019-05-12T04:53:24.861Z,59.17
2019-05-12T04:56:07.520Z,59.16
2019-05-12T04:58:28.849Z,58.93
2019-05-12T05:01:00.624Z,58.63
2019-05-12T05:17:18.502Z,56.19
2019-05-12T05:19:50.649Z,56.79
2019-05-12T05:22:24.248Z,57.07
2019-05-12T05:24:56.451Z,57.43
2019-05-12T05:27:28.502Z,57.10
2019-05-12T05:30:00.266Z,56.96
2019-05-12T05:32:33.884Z,57.25
2019-05-12T05:35:07.757Z,56.83
2019-05-12T05:37:43.577Z,56.92
2019-05-12T05:40:14.281Z,57.04
2019-05-12T05:42:46.633Z,56.50
2019-05-12T05:45:23.415Z,56.47
2019-05-12T05:47:54.276Z,56.53
2019-05-12T05:50:29.472Z,56.17
2019-05-12T05:52:59.502Z,55.94
2019-05-12T05:55:33.917Z,55.81
2019-05-12T05:58:08.588Z,55.48
2019-05-12T06:00:39.509Z,56.15
2019-05-12T06:03:14.975Z,55.61
2019-05-12T06:05:45.499Z,55.23
2019-05-12T06:08:20.852Z,55.12
2019-05-12T06:10:53.801Z,54.90
2019-05-12T06:13:29.932Z,55.10
2019-05-12T06:15:58.692Z,55.01
2019-05-12T06:18:30.584Z,54.78
2019-05-12T06:21:03.454Z,54.99
2019-05-12T06:23:39.192Z,54.73
2019-05-12T06:26:09.880Z,54.91
2019-05-12T06:28:43.789Z,54.60
2019-05-12T06:31:18.953Z,54.46
2019-05-12T06:33:49.033Z,54.48
2019-05-12T06:36:24.876Z,54.11
2019-05-12T06:38:54.927Z,53.77
2019-05-12T06:41:26.728Z,53.78
2019-05-12T06:43:58.749Z,53.61
2019-05-12T06:46:30.624Z,53.66
2019-05-12T06:49:10.236Z,53.82
2019-05-12T06:51:36.249Z,53.29
2019-05-12T06:54:11.971Z,52.81
2019-05-12T06:56:43.512Z,52.83
2019-05-12T06:59:15.736Z,52.13
2019-05-12T07:01:49.882Z,51.96
2019-05-12T07:04:23.958Z,51.81
2019-05-12T07:07:00.230Z,51.32
2019-05-12T07:09:32.053Z,51.03
2019-05-12T07:12:06.661Z,50.72
2019-05-12T07:14:36.057Z,50.58
2019-05-12T07:17:26.840Z,50.05
2019-05-12T07:19:58.830Z,49.68
2019-05-12T07:22:31.301Z,49.82
2019-05-12T07:25:07.872Z,49.37
2019-05-12T07:27:39.687Z,49.40
2019-05-12T07:30:13.660Z,49.20
2019-05-12T07:32:46.154Z,49.23
2019-05-12T07:35:18.058Z,49.29
2019-05-12T07:37:53.941Z,49.26
2019-05-12T07:40:30.108Z,48.97
2019-05-12T07:43:04.050Z,49.61
2019-05-12T07:45:35.670Z,49.12
2019-05-12T07:48:10.169Z,49.17
2019-05-12T07:50:43.206Z,48.82
2019-05-12T07:53:14.662Z,48.88
2019-05-12T07:55:49.286Z,48.15
2019-05-12T07:58:20.284Z,48.23
2019-05-12T08:00:53.916Z,46.75
2019-05-12T08:03:25.942Z,46.67
2019-05-12T08:06:01.772Z,46.66
2019-05-12T08:08:31.394Z,46.45
2019-05-12T08:11:04.624Z,45.77
2019-05-12T08:13:40.798Z,45.12
2019-05-12T08:16:10.457Z,44.66
2019-05-12T08:18:44.439Z,44.62
2019-05-12T08:21:16.167Z,44.32
2019-05-12T08:23:48.003Z,44.31
2019-05-12T08:26:20.360Z,44.33
2019-05-12T08:28:53.490Z,43.98
2019-05-12T08:31:33.134Z,43.92
2019-05-12T08:33:59.593Z,43.68
2019-05-12T08:36:33.457Z,43.80
2019-05-12T08:39:11.954Z,43.68
2019-05-12T08:41:41.119Z,43.19
2019-05-12T08:44:13.554Z,43.41
2019-05-12T08:46:51.979Z,42.95
2019-05-12T08:49:19.373Z,42.73
2019-05-12T08:51:57.873Z,42.73
2019-05-12T08:54:24.947Z,42.01
2019-05-12T08:57:00.984Z,42.09
2019-05-12T08:59:30.700Z,41.96
2019-05-12T09:02:07.303Z,41.66
2019-05-12T09:04:36.398Z,41.03
2019-05-12T09:07:08.987Z,40.82
2019-05-12T09:09:40.786Z,40.57
2019-05-12T09:12:13.981Z,40.61
2019-05-12T09:14:46.529Z,40.03
2019-05-12T09:17:18.449Z,39.25
2019-05-12T09:19:54.983Z,39.17
2019-05-12T09:22:24.364Z,38.61
2019-05-12T09:24:58.387Z,38.59
2019-05-12T09:27:30.175Z,37.81
2019-05-12T09:30:05.428Z,37.59
2019-05-12T09:32:39.125Z,37.66
2019-05-12T09:35:09.378Z,37.46
2019-05-12T09:37:41.428Z,37.36
2019-05-12T09:40:14.891Z,36.93
2019-05-12T09:42:47.285Z,37.10
2019-05-12T09:45:19.137Z,35.72
2019-05-12T09:47:50.999Z,35.52
2019-05-12T09:50:23.355Z,36.08
2019-05-12T09:53:00.660Z,36.32
2019-05-12T09:55:29.106Z,35.04
2019-05-12T09:58:03.777Z,34.70
2019-05-12T10:00:37.489Z,35.39
2019-05-12T10:03:08.902Z,34.67
2019-05-12T10:05:41.512Z,34.63
2019-05-12T10:08:14.219Z,35.12
2019-05-12T10:10:47.169Z,34.79
2019-05-12T10:13:25.098Z,34.71
2019-05-12T10:15:53.640Z,34.16
2019-05-12T10:18:25.665Z,33.97
2019-05-12T10:20:57.568Z,33.84
2019-05-12T10:23:29.607Z,33.70
2019-05-12T10:26:07.484Z,33.19
2019-05-12T10:28:35.802Z,33.12
2019-05-12T10:31:07.557Z,32.60
2019-05-12T10:33:39.517Z,32.42
2019-05-12T10:36:11.303Z,32.88
2019-05-12T10:38:43.472Z,32.17
2019-05-12T10:41:15.626Z,31.67
2019-05-12T10:43:48.397Z,31.45
2019-05-12T10:46:26.389Z,31.49
2019-05-12T10:48:54.942Z,31.42
2019-05-12T10:51:27.058Z,31.12
2019-05-12T10:54:07.746Z,31.36
2019-05-12T10:56:34.795Z,31.23
2019-05-12T10:59:07.002Z,31.17
2019-05-12T11:01:47.320Z,30.06
2019-05-12T11:04:14.323Z,28.32
2019-05-12T11:06:48.456Z,29.20
2019-05-12T11:09:21.326Z,29.21
2019-05-12T11:11:54.165Z,29.19
2019-05-12T11:14:30.471Z,28.89
2019-05-12T11:17:07.401Z,28.87
2019-05-12T11:19:40.748Z,28.79
2019-05-12T11:22:09.479Z,28.40
2019-05-12T11:24:41.346Z,28.01
2019-05-12T11:27:13.510Z,27.63
2019-05-12T11:29:49.301Z,27.34
2019-05-12T11:32:19.340Z,26.83
2019-05-12T11:34:53.613Z,26.73
2019-05-12T11:37:24.815Z,26.42
2019-05-12T11:39:56.993Z,26.37
2019-05-12T11:42:28.781Z,26.85
2019-05-12T11:45:00.801Z,27.03
2019-05-12T11:47:34.636Z,26.78
2019-05-12T11:50:09.760Z,26.20
2019-05-12T11:52:40.988Z,26.33
2019-05-12T11:55:13.463Z,26.53
2019-05-12T11:57:45.267Z,26.03
2019-05-12T12:00:20.226Z,26.44
2019-05-12T12:02:52.123Z,26.18
2019-05-12T12:05:24.102Z,26.29
2019-05-12T12:07:56.278Z,25.61
2019-05-12T12:10:29.379Z,25.50
2019-05-12T12:13:03.678Z,25.12
2019-05-12T12:15:35.954Z,24.57
2019-05-12T12:18:13.157Z,25.46
2019-05-12T12:20:44.086Z,26.04
2019-05-12T12:23:15.041Z,28.01
2019-05-12T12:25:48.474Z,28.58
2019-05-12T12:28:20.577Z,29.00
2019-05-12T12:30:56.788Z,29.43
2019-05-12T12:33:31.086Z,28.84
2019-05-12T12:36:00.866Z,27.65
2019-05-12T12:38:33.490Z,27.29
2019-05-12T12:41:05.393Z,25.88
2019-05-12T12:43:37.168Z,24.15
2019-05-12T12:46:21.213Z,24.46
2019-05-12T12:48:48.654Z,22.31
2019-05-12T12:51:20.633Z,20.60
2019-05-12T12:53:54.116Z,19.02
2019-05-12T12:56:30.076Z,20.30
2019-05-12T12:59:04.104Z,21.86
2019-05-12T13:01:35.777Z,22.58
2019-05-12T13:04:07.873Z,20.33
2019-05-12T13:06:39.716Z,20.28
2019-05-12T13:09:21.940Z,22.35
2019-05-12T13:11:45.063Z,23.79
2019-05-12T13:14:17.559Z,21.66
2019-05-12T13:16:54.605Z,20.40
2019-05-12T13:19:23.844Z,21.91
2019-05-12T13:21:55.883Z,22.52
2019-05-12T13:24:27.705Z,24.05
2019-05-12T13:26:59.695Z,25.33
2019-05-12T13:29:38.148Z,26.03
2019-05-12T13:32:05.777Z,27.24
2019-05-12T13:34:38.609Z,27.42
2019-05-12T13:37:15.564Z,28.12
2019-05-12T13:39:55.351Z,28.27
2019-05-12T13:42:18.276Z,28.31
2019-05-12T13:44:50.274Z,28.33
2019-05-12T13:47:22.310Z,28.43
2019-05-12T13:49:54.540Z,28.78
2019-05-12T13:52:30.275Z,28.83
2019-05-12T13:55:05.334Z,28.80
2019-05-12T13:57:34.171Z,29.08
2019-05-12T14:00:10.570Z,29.23
2019-05-12T14:02:43.977Z,29.45
2019-05-12T14:05:15.582Z,29.53
2019-05-12T14:07:49.976Z,29.77
2019-05-12T14:10:21.213Z,29.58
2019-05-12T14:12:54.361Z,29.65
2019-05-12T14:15:26.765Z,29.85
2019-05-12T14:17:59.465Z,29.96
2019-05-12T14:20:34.549Z,30.62
2019-05-12T14:23:06.795Z,38.73
2019-05-12T14:25:38.713Z,44.28
2019-05-12T14:28:13.647Z,47.24
2019-05-12T14:30:49.732Z,49.96
2019-05-12T14:33:18.816Z,50.61
2019-05-12T14:35:50.639Z,53.37
2019-05-12T14:38:27.507Z,54.79
2019-05-12T14:41:01.145Z,57.80
2019-05-12T14:43:30.068Z,60.00
2019-05-12T14:46:06.214Z,60.46
2019-05-12T14:48:40.169Z,61.05
2019-05-12T14:51:09.238Z,61.45
2019-05-12T14:53:41.285Z,63.08
2019-05-12T14:56:14.045Z,63.73
2019-05-12T14:58:50.296Z,64.22
2019-05-12T15:01:19.628Z,64.86
2019-05-12T15:03:53.512Z,65.82
2019-05-12T15:06:29.447Z,66.77
2019-05-12T15:08:58.825Z,66.73
2019-05-12T15:11:30.658Z,66.89
2019-05-12T15:14:03.157Z,66.87
2019-05-12T15:16:40.302Z,66.76
2019-05-12T15:19:09.879Z,67.87
2019-05-12T15:21:43.744Z,68.01
2019-05-12T15:24:18.996Z,68.71
2019-05-12T15:26:50.453Z,69.18
2019-05-12T15:29:23.757Z,68.66
2019-05-12T15:31:56.815Z,68.94
2019-05-12T15:37:03.983Z,68.60
2019-05-12T15:39:35.082Z,68.65
2019-05-12T15:42:07.223Z,68.04
2019-05-12T15:44:39.030Z,68.75
2019-05-12T15:47:11.191Z,68.45
2019-05-12T15:49:44.260Z,68.19
2019-05-12T15:52:16.470Z,68.34
2019-05-12T15:54:51.280Z,68.60
2019-05-12T15:57:24.438Z,68.30
2019-05-12T15:59:55.630Z,68.40
2019-05-12T16:02:27.613Z,68.54
2019-05-12T16:04:59.477Z,68.76
2019-05-12T16:07:35.678Z,68.51
2019-05-12T16:10:05.640Z,68.36
2019-05-12T16:12:37.866Z,68.72
2019-05-12T16:15:11.453Z,68.73
2019-05-12T16:17:44.266Z,68.89
2019-05-12T16:20:17.275Z,69.43
2019-05-12T16:22:49.260Z,69.56
2019-05-12T16:25:29.148Z,69.66
2019-05-12T16:27:54.886Z,70.09
2019-05-12T16:30:27.229Z,70.04
2019-05-12T16:32:59.468Z,70.29
2019-05-12T16:35:31.988Z,69.97
2019-05-12T16:38:13.865Z,69.63
2019-05-12T16:40:39.482Z,69.24
2019-05-12T16:43:14.432Z,69.22
2019-05-12T16:45:45.999Z,69.59
2019-05-12T16:48:29.219Z,69.58
2019-05-12T16:50:52.744Z,69.57
2019-05-12T16:53:27.934Z,69.80
2019-05-12T16:55:59.836Z,69.81
2019-05-12T16:58:35.214Z,69.57
2019-05-12T17:01:05.308Z,69.65
2019-05-12T17:03:37.435Z,69.50
2019-05-12T17:06:09.475Z,69.47
2019-05-12T17:08:43.690Z,69.82
2019-05-12T17:11:27.310Z,70.26
2019-05-12T17:13:56.858Z,70.95
2019-05-12T17:16:22.395Z,71.59
2019-05-12T17:18:54.355Z,71.72
2019-05-12T17:21:26.467Z,71.92
2019-05-12T17:23:58.490Z,72.09
2019-05-12T17:26:30.304Z,72.07
2019-05-12T17:29:02.318Z,72.42
2019-05-12T17:31:34.601Z,72.45
2019-05-12T17:34:09.235Z,72.33
2019-05-12T17:36:40.531Z,72.42
2019-05-12T17:39:13.853Z,72.25
2019-05-12T17:41:45.899Z,72.27
2019-05-12T17:44:18.059Z,72.86
2019-05-12T17:46:49.855Z,72.83
2019-05-12T17:49:25.450Z,73.05
2019-05-12T17:51:57.283Z,72.67
2019-05-12T17:54:29.378Z,73.05
2019-05-12T17:57:01.215Z,73.50
2019-05-12T17:59:33.412Z,73.65
2019-05-12T18:02:11.409Z,73.64
2019-05-12T18:04:39.689Z,73.81
2019-05-12T18:07:18.505Z,73.67
2019-05-12T18:09:50.539Z,73.85
2019-05-12T18:12:20.232Z,73.65
2019-05-12T18:14:53.318Z,73.28
2019-05-12T18:17:25.181Z,73.33
2019-05-12T18:20:00.837Z,72.91
2019-05-12T18:22:31.078Z,73.23
2019-05-12T18:25:04.297Z,72.87
2019-05-12T18:27:44.414Z,72.86
2019-05-12T18:30:11.015Z,72.96
2019-05-12T18:32:43.537Z,73.02
2019-05-12T18:35:15.951Z,73.14
2019-05-12T18:37:48.320Z,72.87
2019-05-12T18:40:20.588Z,72.86
2019-05-12T18:42:53.371Z,72.77
2019-05-12T18:45:26.074Z,72.99
2019-05-12T18:48:01.056Z,73.09
2019-05-12T18:50:34.278Z,73.27
2019-05-12T18:53:05.778Z,72.92
2019-05-12T18:55:40.307Z,72.86
2019-05-12T18:58:11.609Z,72.91
2019-05-12T19:00:43.798Z,73.08
2019-05-12T19:03:15.818Z,72.92
2019-05-12T19:05:47.918Z,72.64
2019-05-12T19:08:20.406Z,72.64
2019-05-12T19:10:53.086Z,72.61
2019-05-12T19:13:25.335Z,72.57
2019-05-12T19:16:02.501Z,72.61
2019-05-12T19:18:37.027Z,72.40
2019-05-12T19:21:10.361Z,72.39
2019-05-12T19:23:40.764Z,72.25
2019-05-12T19:26:13.606Z,72.26
2019-05-12T19:28:53.183Z,71.99
2019-05-12T19:31:19.492Z,71.92
2019-05-12T19:34:03.212Z,71.80
2019-05-12T19:36:24.917Z,71.60
2019-05-12T19:38:56.834Z,72.12
2019-05-12T19:41:30.878Z,72.04
2019-05-12T19:44:04.041Z,72.34
2019-05-12T19:46:39.866Z,72.24
2019-05-12T19:49:09.641Z,72.46
2019-05-12T19:51:43.796Z,72.57
2019-05-12T19:54:19.421Z,72.43
2019-05-12T19:56:49.733Z,72.56
2019-05-12T19:59:23.658Z,72.40
2019-05-12T20:01:55.520Z,72.33
2019-05-12T20:04:33.293Z,72.33
2019-05-12T20:07:03.563Z,72.42
2019-05-12T20:09:35.093Z,72.35
2019-05-12T20:12:15.151Z,72.37
2019-05-12T20:14:40.651Z,72.36
2019-05-12T20:17:12.579Z,72.42
2019-05-12T20:19:44.551Z,72.22
2019-05-12T20:22:16.669Z,71.69
2019-05-12T20:24:48.497Z,72.01
2019-05-12T20:27:21.924Z,71.71
2019-05-12T20:29:54.112Z,71.82
2019-05-12T20:32:26.193Z,72.25
2019-05-12T20:34:58.128Z,71.98
2019-05-12T20:37:30.001Z,72.01
2019-05-12T20:40:05.233Z,72.14
2019-05-12T20:42:43.997Z,72.21
2019-05-12T20:45:13.573Z,72.65
2019-05-12T20:47:47.690Z,72.56
2019-05-12T20:50:25.959Z,72.31
2019-05-12T20:52:58.736Z,72.50
2019-05-12T20:55:29.978Z,72.21
2019-05-12T20:58:01.435Z,72.16
2019-05-12T21:00:33.711Z,72.08
2019-05-12T21:03:05.890Z,72.38
2019-05-12T21:05:37.678Z,72.11
2019-05-12T21:08:12.024Z,72.14
2019-05-12T21:10:43.905Z,72.33
2019-05-12T21:13:20.484Z,72.10
2019-05-12T21:15:50.467Z,72.15
2019-05-12T21:18:23.709Z,72.21
2019-05-12T21:20:55.995Z,72.19
2019-05-12T21:23:28.127Z,72.22
2019-05-12T21:26:00.204Z,72.29
2019-05-12T21:28:37.035Z,72.30
2019-05-12T21:31:05.951Z,72.29
2019-05-12T21:33:41.650Z,71.91
2019-05-12T21:36:17.362Z,71.98
2019-05-12T21:38:45.138Z,72.22
2019-05-12T21:41:17.188Z,72.33
2019-05-12T21:43:49.254Z,72.35
2019-05-12T21:46:21.090Z,72.45
2019-05-12T21:48:53.172Z,72.95
2019-05-12T21:51:26.385Z,72.60
2019-05-12T21:53:58.444Z,72.83
2019-05-12T21:56:34.912Z,72.56
2019-05-12T21:59:03.895Z,72.48
2019-05-12T22:01:43.502Z,72.31
2019-05-12T22:04:10.618Z,72.59
2019-05-12T22:06:43.784Z,72.78
2019-05-12T22:09:17.561Z,72.90
2019-05-12T22:11:50.980Z,73.01
2019-05-12T22:14:24.077Z,73.36
2019-05-12T22:16:57.588Z,73.34
2019-05-12T22:19:31.208Z,73.13
2019-05-12T22:22:04.324Z,73.54
2019-05-12T22:24:38.730Z,73.44
2019-05-12T22:27:13.959Z,73.87
2019-05-12T22:29:43.890Z,73.90
2019-05-12T22:32:18.987Z,73.75
2019-05-12T22:34:49.544Z,73.63
2019-05-12T22:37:23.849Z,73.55
2019-05-12T22:39:56.222Z,73.80
2019-05-12T22:42:28.257Z,73.75
2019-05-12T22:45:01.452Z,73.94
2019-05-12T22:47:33.590Z,73.73
2019-05-12T22:50:05.570Z,73.84
2019-05-12T22:52:38.992Z,73.62
2019-05-12T22:55:13.992Z,73.43
2019-05-12T22:57:45.663Z,73.62
2019-05-12T23:00:21.683Z,73.68
2019-05-12T23:02:53.781Z,73.62
2019-05-12T23:05:25.612Z,73.74
2019-05-12T23:08:00.202Z,73.40
2019-05-12T23:10:30.957Z,73.48
2019-05-12T23:13:05.046Z,73.93
2019-05-12T23:15:38.846Z,73.68
2019-05-12T23:18:10.285Z,73.71
2019-05-12T23:20:43.911Z,73.79
2019-05-12T23:23:18.869Z,73.45
2019-05-12T23:25:54.318Z,73.18
2019-05-12T23:28:23.537Z,73.36
2019-05-12T23:30:55.769Z,73.42
2019-05-12T23:33:31.775Z,73.38
2019-05-12T23:36:01.101Z,73.14
2019-05-12T23:38:33.878Z,72.95
2019-05-12T23:41:05.958Z,73.01
2019-05-12T23:43:37.864Z,73.19
2019-05-12T23:46:09.999Z,73.35
2019-05-12T23:48:43.882Z,73.15
2019-05-12T23:51:15.287Z,73.16
2019-05-12T23:53:47.013Z,73.45
2019-05-12T23:56:18.883Z,73.34
2019-05-12T23:58:50.612Z,73.47
